Aydin, Turkey

8:13 PM EET on January 25, 2015 (GMT +0200)
Bodrum | Change Station
CLOSE
Current Station
Airport
Location: Milas,
Elevation: 20 ft
Nearby Weather Stations

Elev 20 ft 37.25 °N, 27.67 °E | Updated 3 minutes ago

Light Rain Showers
Light Showers Rain
50 °F
Feels Like 50 °F
N
8
Wind Variable Wind from East

Today
High -- | Low -- °F
--% Chance of Precip.
Yesterday
High -- | Low -- °F
Precip. -- in
7:18 AM 5:23 PM
Waxing Crescent, 34% visible
Pressure 29.95 in
Visibility 5.0 miles
Clouds Scattered Clouds 3000 ft
Mostly Cloudy 9000 ft
Dew Point 48 °F
Humidity 94%
Rainfall 0.00 in
Snow Depth Not available.
UV 0 out of 12
Pollen Not available.
Air Quality Not available.
Flu Activity Not available.
SPECI LTFE 251810Z 09007KT 8000 -SHRA SCT030 BKN090 10/09 Q1014 RESHRA TEMPO -TSRA RMK RWY10 07002KT

More Conditions Fewer Conditions

Pressure 29.95 in
Visibility 5.0 miles
Clouds Scattered Clouds 3000 ft
Mostly Cloudy 9000 ft
Dew Point 48 °F
Humidity 94%
Rainfall 0.00 in
Snow Depth Not available.
UV 0 out of 12
Pollen Not available.
Air Quality Not available.
Flu Activity Not available.
SPECI LTFE 251810Z 09007KT 8000 -SHRA SCT030 BKN090 10/09 Q1014 RESHRA TEMPO -TSRA RMK RWY10 07002KT

More Conditions Fewer Conditions

10-Day Weather Forecast

Almanac

Astronomy

Jan. 25, 2015 Rise Set
Actual Time
Civil Twilight
Nautical Twilight
Astronomical Twilight
Moon
Length of Visible Light
Length of Day
Tomorrow will be .
, % of the Moon is Illuminated

Today's Extremes

Country Highs Country Lows

Community

WunderPhotos

Upload Photos

1,790,011 photos uploaded!

WunderBlogs® & News

Nearby

Air Quality

  Air Quality AQ Index Pollutant
Not available.

Snow Depth

Station Depth Elevation

Earthquake Activity

City Distance Mag. Time & Date
Minimum magnitude displayed is 2.5.

Coastal Water Temperatures

Place Temperature

Nearby Weather Stations